Time;durP1;ratioP1;P1;durP2;ratioP2;P2;SDS_P1;SDS_P2;PMS_P1;PMS_P2;Temp;Humidity;BMP_temperature;BMP_pressure;BME280_temperature;BME280_humidity;BME280_pressure;Samples;Min_cycle;Max_cycle;Signal;HPM_P1;HPM_P2
2023/06/19 00:01:07;;;;;;;8.70;4.85;;;;;;;23.93;48.87;99211.00;5036474;28;20267;-77
2023/06/19 00:03:33;;;;;;;6.60;4.00;;;;;;;23.89;48.62;99202.59;5036176;28;20662;-78
2023/06/19 00:05:58;;;;;;;8.83;5.87;;;;;;;23.89;48.97;99195.06;5036644;28;20273;-77
2023/06/19 00:08:23;;;;;;;6.30;4.57;;;;;;;23.91;49.28;99191.88;5035959;28;20497;-76
2023/06/19 00:10:48;;;;;;;8.10;4.27;;;;;;;23.88;49.37;99203.78;5043573;28;20037;-79
2023/06/19 00:13:14;;;;;;;7.37;4.67;;;;;;;23.89;49.20;99200.63;5040768;28;20337;-77
2023/06/19 00:15:39;;;;;;;8.70;5.13;;;;;;;23.88;49.43;99199.00;5042845;28;20529;-78
2023/06/19 00:18:06;;;;;;;6.30;3.90;;;;;;;23.75;49.91;99189.22;5035088;28;20032;-80
2023/06/19 00:20:32;;;;;;;8.20;4.80;;;;;;;23.77;49.99;99187.69;5041599;28;20025;-77
2023/06/19 00:22:57;;;;;;;7.60;4.35;;;;;;;23.77;50.12;99190.47;5040009;28;20033;-79
2023/06/19 00:25:22;;;;;;;6.80;4.10;;;;;;;23.65;50.22;99191.44;5038390;28;20040;-78
2023/06/19 00:27:47;;;;;;;12.53;4.63;;;;;;;23.67;50.16;99203.00;5037358;28;20029;-76
2023/06/19 00:30:13;;;;;;;7.73;5.23;;;;;;;23.61;50.48;99212.00;5041858;28;20479;-77
2023/06/19 00:32:46;;;;;;;9.20;5.60;;;;;;;23.65;50.52;99215.66;5037648;28;20285;-76
2023/06/19 00:35:15;;;;;;;6.45;4.50;;;;;;;23.57;50.66;99214.72;5037937;28;20433;-78
2023/06/19 00:37:44;;;;;;;8.00;5.38;;;;;;;23.51;51.13;99218.97;5037815;28;20026;-76
2023/06/19 00:40:16;;;;;;;7.93;4.95;;;;;;;23.53;51.00;99211.06;5036940;28;20025;-77
2023/06/19 00:42:41;;;;;;;8.35;4.57;;;;;;;23.56;50.96;99215.88;5036360;28;20646;-77
2023/06/19 00:45:07;;;;;;;6.93;4.03;;;;;;;23.58;51.23;99216.31;5039646;28;20048;-80
2023/06/19 00:47:34;;;;;;;8.52;4.70;;;;;;;23.51;51.01;99216.19;5037026;28;20250;-76
2023/06/19 00:49:59;;;;;;;7.35;4.55;;;;;;;23.57;50.79;99217.50;5038385;28;20025;-77
2023/06/19 00:52:24;;;;;;;8.20;4.75;;;;;;;23.54;50.94;99215.44;5040290;28;20044;-78
2023/06/19 00:54:50;;;;;;;8.75;3.97;;;;;;;23.47;51.20;99218.91;5037743;28;20037;-77
2023/06/19 00:57:15;;;;;;;8.52;4.47;;;;;;;23.59;51.01;99211.56;5044022;28;20037;-77
2023/06/19 00:59:40;;;;;;;7.85;4.93;;;;;;;23.59;50.73;99215.16;5035341;28;20514;-77
2023/06/19 01:02:06;;;;;;;7.85;4.80;;;;;;;23.54;50.83;99207.09;5044450;28;20025;-77
2023/06/19 01:04:31;;;;;;;7.70;4.85;;;;;;;23.56;50.90;99210.31;5040972;28;20629;-77
2023/06/19 01:07:10;;;;;;;7.40;4.47;;;;;;;23.70;50.76;99218.13;5041500;28;20025;-77
2023/06/19 01:09:55;;;;;;;8.57;4.95;;;;;;;23.62;50.80;99197.72;5032224;28;20025;-77
2023/06/19 01:12:26;;;;;;;6.35;3.97;;;;;;;23.52;51.17;99206.66;5042021;28;20029;-76
2023/06/19 01:14:58;;;;;;;7.45;4.45;;;;;;;23.51;51.03;99199.50;5040576;28;20028;-77
2023/06/19 01:17:26;;;;;;;7.30;4.57;;;;;;;23.52;50.84;99209.44;5048737;28;20486;-76
2023/06/19 01:19:51;;;;;;;7.90;4.53;;;;;;;23.50;50.65;99209.00;5039559;28;20068;-77
2023/06/19 01:22:32;;;;;;;8.82;4.70;;;;;;;23.46;50.61;99208.13;5040001;28;20660;-76
2023/06/19 01:24:58;;;;;;;7.53;4.60;;;;;;;23.44;50.65;99214.88;5038220;28;20056;-77
2023/06/19 01:27:25;;;;;;;7.82;4.13;;;;;;;23.43;50.58;99213.22;5049415;28;20451;-77
2023/06/19 01:29:53;;;;;;;8.48;4.95;;;;;;;23.47;50.52;99204.19;5036752;28;20032;-76
2023/06/19 01:32:22;;;;;;;8.25;4.32;;;;;;;23.49;50.20;99212.97;5043958;28;20030;-77
2023/06/19 01:34:50;;;;;;;6.72;4.10;;;;;;;23.47;50.44;99204.19;5043627;28;20022;-77
2023/06/19 01:37:16;;;;;;;6.80;4.28;;;;;;;23.48;50.48;99206.59;5042688;28;20021;-76
2023/06/19 01:39:41;;;;;;;7.78;4.07;;;;;;;23.41;50.35;99198.88;5047323;28;20086;-77
2023/06/19 01:42:09;;;;;;;7.32;4.43;;;;;;;23.42;50.25;99194.94;5040873;28;20490;-76
2023/06/19 01:44:35;;;;;;;7.97;4.20;;;;;;;23.44;50.14;99197.34;5037651;28;20037;-77
2023/06/19 01:47:08;;;;;;;6.10;4.07;;;;;;;23.42;50.02;99188.56;5042302;28;20459;-77
2023/06/19 01:49:33;;;;;;;11.27;4.75;;;;;;;23.42;49.63;99191.34;5037808;28;20033;-77
2023/06/19 01:52:00;;;;;;;9.00;5.33;;;;;;;23.44;49.63;99191.78;5036875;28;20459;-78
2023/06/19 01:54:26;;;;;;;8.30;4.88;;;;;;;23.46;49.46;99194.22;5038797;28;20593;-79
2023/06/19 01:56:51;;;;;;;6.45;3.97;;;;;;;23.37;48.81;99195.22;5043109;28;20036;-77
2023/06/19 01:59:16;;;;;;;9.23;5.20;;;;;;;23.36;49.25;99185.28;5042262;28;20033;-77
2023/06/19 02:01:41;;;;;;;8.40;5.67;;;;;;;23.35;49.20;99191.22;5045302;28;20306;-77
2023/06/19 02:04:07;;;;;;;10.43;5.07;;;;;;;23.37;48.81;99188.88;5039660;28;20066;-77
2023/06/19 02:06:32;;;;;;;9.63;4.80;;;;;;;23.38;48.68;99188.50;5043590;28;20031;-77
2023/06/19 02:08:57;;;;;;;9.23;5.63;;;;;;;23.38;48.67;99188.50;5043952;28;20025;-77
2023/06/19 02:11:22;;;;;;;9.10;5.67;;;;;;;23.39;48.67;99192.09;5043058;28;20283;-77
2023/06/19 02:13:48;;;;;;;7.73;4.67;;;;;;;23.39;48.58;99192.88;5048694;28;20316;-77
2023/06/19 02:16:13;;;;;;;8.07;5.43;;;;;;;23.36;48.38;99196.41;5041084;28;20277;-78
2023/06/19 02:18:38;;;;;;;8.03;5.20;;;;;;;23.39;48.58;99198.44;5040107;28;20033;-78
2023/06/19 02:21:04;;;;;;;8.50;5.17;;;;;;;23.39;48.27;99195.66;5039841;28;20278;-79
2023/06/19 02:23:29;;;;;;;8.37;5.47;;;;;;;23.37;48.68;99205.56;5037793;28;20312;-79
2023/06/19 02:25:54;;;;;;;8.48;5.82;;;;;;;23.17;48.65;99211.91;5037923;28;20792;-80
2023/06/19 02:28:20;;;;;;;16.03;5.87;;;;;;;23.11;49.13;99207.78;5039814;28;20394;-82
2023/06/19 02:30:45;;;;;;;8.60;5.63;;;;;;;23.18;49.18;99210.75;5049745;28;20079;-80
2023/06/19 02:33:10;;;;;;;8.82;6.13;;;;;;;23.11;49.39;99220.91;5048050;28;20041;-79
2023/06/19 02:35:35;;;;;;;8.30;5.17;;;;;;;23.06;49.25;99217.25;5045020;28;20052;-79
2023/06/19 02:38:01;;;;;;;9.33;4.90;;;;;;;23.07;49.64;99218.03;5043947;28;20086;-80
2023/06/19 02:40:26;;;;;;;7.17;5.33;;;;;;;23.06;49.55;99222.81;5040009;28;20037;-80
2023/06/19 02:42:51;;;;;;;9.27;5.50;;;;;;;22.98;50.00;99227.38;5043079;28;20243;-80
2023/06/19 02:45:16;;;;;;;10.40;6.40;;;;;;;23.04;49.80;99230.69;5042637;28;20044;-80
2023/06/19 02:47:42;;;;;;;9.77;5.23;;;;;;;22.87;50.07;99231.88;5040236;28;20024;-79
2023/06/19 02:50:07;;;;;;;10.73;6.45;;;;;;;22.89;50.14;99235.09;5041393;28;20259;-79
2023/06/19 02:52:32;;;;;;;8.40;5.72;;;;;;;22.97;50.14;99247.19;5041876;28;20130;-81
2023/06/19 02:54:58;;;;;;;9.50;6.17;;;;;;;22.96;50.32;99257.50;5042164;28;20032;-80
2023/06/19 02:57:24;;;;;;;12.25;6.80;;;;;;;22.91;50.22;99254.19;5046476;28;20369;-80
2023/06/19 02:59:49;;;;;;;10.35;6.20;;;;;;;22.83;50.58;99254.03;5045682;28;20037;-80
2023/06/19 03:02:14;;;;;;;9.25;6.00;;;;;;;22.84;50.31;99265.97;5037322;28;20029;-80
2023/06/19 03:04:44;;;;;;;11.15;6.63;;;;;;;22.91;50.19;99262.53;5047490;28;20116;-81
2023/06/19 03:07:09;;;;;;;9.15;5.82;;;;;;;22.91;50.45;99277.25;5044307;28;20142;-80
2023/06/19 03:09:35;;;;;;;9.60;6.53;;;;;;;22.95;50.25;99272.56;5037502;28;20056;-81
2023/06/19 03:12:01;;;;;;;9.63;5.70;;;;;;;22.83;50.36;99276.25;5045182;28;20798;-79
2023/06/19 03:14:26;;;;;;;10.48;5.63;;;;;;;22.98;50.44;99276.59;5045498;28;20029;-79
2023/06/19 03:16:51;;;;;;;10.27;5.23;;;;;;;22.97;50.47;99275.78;5048241;28;20546;-79
2023/06/19 03:19:17;;;;;;;11.20;5.40;;;;;;;22.93;50.88;99294.34;5041622;28;20025;-80
2023/06/19 03:21:42;;;;;;;9.93;5.83;;;;;;;23.02;51.12;99294.16;5045346;28;20029;-79
2023/06/19 03:24:07;;;;;;;9.70;5.63;;;;;;;23.02;50.96;99305.28;5040386;28;20037;-78
2023/06/19 03:26:33;;;;;;;10.50;5.67;;;;;;;23.03;51.42;99314.41;5038955;28;20301;-76
2023/06/19 03:28:58;;;;;;;8.68;5.05;;;;;;;22.91;52.06;99305.03;5033439;28;20100;-77
2023/06/19 03:31:23;;;;;;;7.70;4.70;;;;;;;23.00;51.82;99310.41;5039137;28;20045;-77
2023/06/19 03:33:48;;;;;;;8.03;5.20;;;;;;;22.98;52.11;99305.19;5036622;28;20246;-77
2023/06/19 03:36:14;;;;;;;8.07;5.00;;;;;;;22.87;52.99;99315.25;5042130;28;20025;-77
2023/06/19 03:38:39;;;;;;;7.50;4.35;;;;;;;22.83;53.47;99317.13;5036801;28;20251;-77
2023/06/19 03:41:04;;;;;;;7.78;4.30;;;;;;;22.73;53.97;99316.50;5037412;28;20479;-77
2023/06/19 03:43:29;;;;;;;8.67;4.87;;;;;;;22.68;54.67;99315.97;5044821;28;20123;-78
2023/06/19 03:45:55;;;;;;;8.20;4.03;;;;;;;22.58;55.22;99320.03;5044267;28;20017;-78
2023/06/19 03:48:20;;;;;;;9.27;3.83;;;;;;;22.58;55.58;99322.81;5039861;28;20082;-77
2023/06/19 03:50:45;;;;;;;6.40;4.10;;;;;;;22.52;55.75;99316.72;5046132;28;20254;-77
2023/06/19 03:53:10;;;;;;;6.43;3.97;;;;;;;22.46;56.22;99326.50;5043816;28;20030;-77
2023/06/19 03:55:36;;;;;;;6.03;3.73;;;;;;;22.44;56.42;99331.59;5039116;28;20036;-76
2023/06/19 03:58:01;;;;;;;7.37;4.00;;;;;;;22.44;56.39;99335.19;5045930;28;20796;-77
2023/06/19 04:00:27;;;;;;;6.65;3.67;;;;;;;22.45;56.95;99344.34;5039079;28;20270;-77
2023/06/19 04:02:52;;;;;;;6.55;3.72;;;;;;;22.32;57.49;99346.34;5034909;28;20474;-78
2023/06/19 04:05:17;;;;;;;10.37;3.47;;;;;;;22.41;57.24;99355.34;5034120;28;20059;-77
2023/06/19 04:07:43;;;;;;;6.10;3.65;;;;;;;22.36;57.61;99347.25;5037742;28;20246;-77
2023/06/19 04:10:09;;;;;;;8.55;4.18;;;;;;;22.43;57.33;99350.25;5031658;28;20041;-76
2023/06/19 04:12:34;;;;;;;6.72;3.67;;;;;;;22.43;57.79;99353.03;5040159;28;21229;-78
2023/06/19 04:14:59;;;;;;;6.93;4.30;;;;;;;22.22;58.87;99354.03;5038320;28;20036;-77
2023/06/19 04:17:25;;;;;;;8.10;3.22;;;;;;;22.08;59.72;99364.75;5035222;28;21251;-77
2023/06/19 04:19:50;;;;;;;8.82;3.38;;;;;;;22.11;59.37;99366.84;5037563;28;20020;-77
2023/06/19 04:22:15;;;;;;;5.53;2.83;;;;;;;22.18;59.31;99375.34;5039440;28;20083;-77
2023/06/19 04:24:40;;;;;;;20.53;3.70;;;;;;;22.22;59.49;99365.16;5047859;28;20254;-78
2023/06/19 04:27:08;;;;;;;5.07;2.37;;;;;;;22.13;59.65;99378.38;5048240;28;20569;-78
2023/06/19 04:29:33;;;;;;;6.95;3.03;;;;;;;22.15;59.77;99387.16;5036803;28;20084;-77
2023/06/19 04:31:59;;;;;;;6.57;3.20;;;;;;;22.25;59.64;99381.09;5036119;28;20037;-77
2023/06/19 04:34:25;;;;;;;4.32;2.50;;;;;;;22.22;59.49;99381.81;5044174;28;20596;-81
2023/06/19 04:36:51;;;;;;;6.43;3.50;;;;;;;22.19;59.87;99381.72;5045406;28;20025;-79
2023/06/19 04:39:16;;;;;;;6.72;3.58;;;;;;;22.20;60.01;99395.22;5034201;28;20488;-79
2023/06/19 04:41:44;;;;;;;4.60;2.45;;;;;;;22.24;60.12;99392.53;5045752;28;20112;-80
2023/06/19 04:44:13;;;;;;;5.47;2.75;;;;;;;22.14;60.40;99405.78;5038022;28;20032;-75
2023/06/19 04:46:39;;;;;;;6.60;3.30;;;;;;;22.03;61.02;99402.69;5037038;28;20025;-76
2023/06/19 04:49:05;;;;;;;5.97;2.58;;;;;;;22.12;60.79;99398.97;5032697;28;20075;-78
2023/06/19 04:51:32;;;;;;;5.38;3.00;;;;;;;22.13;60.70;99408.91;5039104;28;20056;-77
2023/06/19 04:53:58;;;;;;;5.28;2.85;;;;;;;22.11;60.94;99414.00;5036887;28;20084;-77
2023/06/19 04:56:23;;;;;;;5.68;2.78;;;;;;;22.33;60.64;99409.88;5041362;28;20510;-79
2023/06/19 04:58:49;;;;;;;4.35;2.35;;;;;;;22.32;60.77;99415.75;5038232;28;20052;-77
2023/06/19 05:01:15;;;;;;;9.15;3.40;;;;;;;22.15;61.16;99415.72;5046961;28;20026;-80
2023/06/19 05:03:42;;;;;;;5.25;2.78;;;;;;;22.20;61.29;99419.41;5039234;28;20131;-76
2023/06/19 05:06:08;;;;;;;6.05;2.92;;;;;;;22.32;61.10;99418.53;5049884;28;20049;-77
2023/06/19 05:08:33;;;;;;;5.53;2.83;;;;;;;22.35;60.65;99423.41;5045810;28;20033;-77
2023/06/19 05:10:59;;;;;;;8.10;2.80;;;;;;;22.36;61.18;99425.00;5038505;28;20466;-76
2023/06/19 05:13:24;;;;;;;6.55;2.85;;;;;;;22.03;62.27;99435.97;5039054;28;20634;-76
2023/06/19 05:15:50;;;;;;;4.33;2.00;;;;;;;21.96;62.40;99440.53;5047576;28;20024;-76
2023/06/19 05:18:16;;;;;;;5.03;2.28;;;;;;;21.92;62.82;99440.41;5039800;28;20302;-77
2023/06/19 05:20:41;;;;;;;4.45;2.63;;;;;;;22.10;62.25;99437.34;5039721;28;20021;-77
2023/06/19 05:23:06;;;;;;;7.63;3.03;;;;;;;21.92;63.12;99434.88;5050059;28;20103;-77
2023/06/19 05:25:31;;;;;;;3.77;1.83;;;;;;;22.01;62.68;99438.31;5043295;28;20258;-78
2023/06/19 05:27:57;;;;;;;3.67;1.97;;;;;;;21.99;63.00;99431.47;5040710;28;20262;-77
2023/06/19 05:30:22;;;;;;;2.57;1.37;;;;;;;22.14;62.51;99435.50;5049716;28;20063;-77
2023/06/19 05:32:47;;;;;;;4.00;1.60;;;;;;;22.16;62.27;99439.53;5045858;28;20029;-77
2023/06/19 05:35:12;;;;;;;3.87;2.07;;;;;;;21.87;63.03;99435.09;5039745;28;20037;-76
2023/06/19 05:37:39;;;;;;;12.10;3.50;;;;;;;21.87;63.24;99440.63;5048785;28;20556;-77
2023/06/19 05:40:05;;;;;;;4.20;1.48;;;;;;;21.87;63.32;99444.22;5038717;28;20306;-78
2023/06/19 05:42:31;;;;;;;4.45;1.88;;;;;;;21.99;63.30;99446.16;5046779;28;20082;-78
2023/06/19 05:44:56;;;;;;;37.53;4.47;;;;;;;21.73;63.94;99435.44;5040476;28;20115;-77
2023/06/19 05:47:25;;;;;;;2.47;1.40;;;;;;;21.77;63.91;99444.69;5034227;28;20723;-78
2023/06/19 05:49:50;;;;;;;4.22;1.40;;;;;;;21.95;63.63;99444.47;5038704;28;20493;-77
2023/06/19 05:52:15;;;;;;;12.40;2.23;;;;;;;21.96;63.72;99449.66;5048344;28;20034;-77
2023/06/19 05:54:41;;;;;;;5.43;1.83;;;;;;;22.09;63.45;99444.88;5041865;28;20259;-76
2023/06/19 05:57:06;;;;;;;4.37;1.47;;;;;;;22.15;63.11;99451.00;5044169;28;20250;-77
2023/06/19 05:59:31;;;;;;;3.88;1.92;;;;;;;22.09;63.53;99460.72;5043221;28;20511;-76
2023/06/19 06:01:57;;;;;;;3.53;1.43;;;;;;;22.07;62.99;99465.81;5042869;28;20058;-77
2023/06/19 06:04:22;;;;;;;3.67;1.80;;;;;;;22.12;63.23;99462.78;5039995;28;20029;-77
2023/06/19 06:06:47;;;;;;;4.43;1.87;;;;;;;21.97;63.31;99456.81;5044200;28;20078;-77
2023/06/19 06:09:14;;;;;;;4.00;1.65;;;;;;;22.06;63.32;99472.53;5043525;28;20562;-76
2023/06/19 06:11:39;;;;;;;5.22;1.50;;;;;;;22.17;63.13;99479.19;5049069;28;20025;-77
2023/06/19 06:14:04;;;;;;;4.03;1.77;;;;;;;22.16;63.29;99478.41;5042069;28;20588;-77
2023/06/19 06:16:30;;;;;;;8.23;1.93;;;;;;;22.33;62.49;99478.47;5046393;28;20265;-78
2023/06/19 06:18:55;;;;;;;3.83;1.53;;;;;;;22.33;62.47;99482.06;5041178;28;20520;-76
2023/06/19 06:21:20;;;;;;;5.47;1.97;;;;;;;22.36;62.46;99489.69;5047353;28;20025;-77
2023/06/19 06:23:47;;;;;;;3.97;1.77;;;;;;;22.24;62.79;99496.06;5045988;28;20046;-78
2023/06/19 06:26:13;;;;;;;5.03;2.33;;;;;;;22.04;63.55;99493.13;5037048;28;20029;-78
2023/06/19 06:28:39;;;;;;;3.90;1.77;;;;;;;22.38;62.76;99495.69;5039855;28;20164;-78
2023/06/19 06:31:04;;;;;;;4.40;1.50;;;;;;;22.48;62.23;99499.13;5037730;28;20041;-76
2023/06/19 06:33:29;;;;;;;3.80;1.70;;;;;;;22.67;61.90;99495.72;5039341;28;20029;-77
2023/06/19 06:35:55;;;;;;;5.00;2.10;;;;;;;22.48;62.39;99497.16;5039284;28;20109;-77
2023/06/19 06:38:20;;;;;;;4.35;1.42;;;;;;;22.52;62.39;99500.03;5038639;28;20048;-79
2023/06/19 06:40:46;;;;;;;5.73;2.43;;;;;;;22.37;62.62;99496.03;5037107;28;20064;-79
2023/06/19 06:43:11;;;;;;;5.00;2.08;;;;;;;22.41;62.61;99498.91;5037794;28;20038;-77
2023/06/19 06:45:42;;;;;;;4.30;2.25;;;;;;;22.25;62.97;99497.69;5039553;28;20017;-77
2023/06/19 06:48:07;;;;;;;3.55;1.75;;;;;;;22.43;62.81;99499.38;5036975;28;20033;-76
2023/06/19 06:50:33;;;;;;;3.78;1.90;;;;;;;22.37;62.80;99491.28;5036066;28;20044;-76
2023/06/19 06:52:58;;;;;;;2.67;1.48;;;;;;;22.28;62.78;99498.94;5036941;28;20041;-79
2023/06/19 06:55:23;;;;;;;5.97;2.13;;;;;;;22.31;63.00;99501.03;5036106;28;20079;-80
2023/06/19 06:57:49;;;;;;;4.63;2.05;;;;;;;22.37;62.64;99493.28;5037480;28;20246;-79
2023/06/19 07:00:14;;;;;;;4.82;2.47;;;;;;;22.39;62.59;99500.06;5033432;28;20062;-80
2023/06/19 07:02:40;;;;;;;3.03;1.45;;;;;;;22.67;62.21;99501.28;5035858;28;20505;-77
2023/06/19 07:05:07;;;;;;;5.25;1.75;;;;;;;22.68;61.98;99502.88;5033308;28;20046;-74
2023/06/19 07:07:32;;;;;;;3.38;1.70;;;;;;;22.60;62.16;99512.97;5033522;28;20124;-73
2023/06/19 07:09:58;;;;;;;4.32;1.73;;;;;;;22.53;62.48;99506.41;5032588;28;20055;-75
2023/06/19 07:12:23;;;;;;;3.93;1.80;;;;;;;22.61;62.13;99513.78;5033669;28;20052;-71
2023/06/19 07:14:48;;;;;;;3.50;1.57;;;;;;;22.50;62.51;99514.28;5032326;28;20143;-73
2023/06/19 07:17:13;;;;;;;4.07;1.80;;;;;;;22.62;62.34;99521.75;5033223;28;20040;-73
2023/06/19 07:19:39;;;;;;;4.03;1.90;;;;;;;22.67;62.49;99529.06;5032043;28;20261;-75
2023/06/19 07:22:04;;;;;;;3.88;1.88;;;;;;;22.74;62.46;99518.13;5032961;28;20304;-73
2023/06/19 07:24:29;;;;;;;4.18;1.92;;;;;;;22.79;61.96;99521.81;5033188;28;20187;-74
2023/06/19 07:26:56;;;;;;;2.40;1.30;;;;;;;22.78;62.32;99528.56;5033013;28;20518;-74
2023/06/19 07:29:21;;;;;;;2.97;1.17;;;;;;;22.82;62.49;99535.81;5032638;28;20041;-73
2023/06/19 07:31:47;;;;;;;7.18;2.10;;;;;;;22.82;62.32;99533.03;5032276;28;20082;-75
2023/06/19 07:34:13;;;;;;;4.43;1.73;;;;;;;22.80;61.90;99538.13;5032816;28;20037;-74
2023/06/19 07:36:39;;;;;;;14.23;1.60;;;;;;;22.70;62.05;99539.44;5032548;28;20356;-74
2023/06/19 07:39:04;;;;;;;4.47;1.38;;;;;;;22.79;61.65;99546.84;5032483;28;20112;-75
2023/06/19 07:41:29;;;;;;;8.13;2.23;;;;;;;22.73;61.76;99540.72;5034376;28;20131;-74
2023/06/19 07:43:54;;;;;;;9.63;1.90;;;;;;;22.65;61.87;99547.19;5033888;28;20386;-76
2023/06/19 07:46:20;;;;;;;3.57;1.63;;;;;;;22.61;61.70;99541.56;5032806;28;20037;-75
2023/06/19 07:48:45;;;;;;;3.40;1.60;;;;;;;22.76;61.35;99553.91;5032095;28;20059;-74
2023/06/19 07:51:10;;;;;;;5.43;2.07;;;;;;;22.73;61.59;99551.84;5028891;28;20607;-75
2023/06/19 07:53:35;;;;;;;3.67;1.38;;;;;;;22.64;61.76;99540.84;5032612;28;20356;-75
2023/06/19 07:56:01;;;;;;;6.97;1.90;;;;;;;22.64;62.10;99546.38;5032857;28;20033;-75
2023/06/19 07:58:26;;;;;;;3.23;1.63;;;;;;;22.55;62.15;99540.19;5031258;28;20353;-74
2023/06/19 08:00:51;;;;;;;3.72;2.03;;;;;;;22.84;61.47;99543.81;5032002;28;20298;-74
2023/06/19 08:03:16;;;;;;;3.47;1.60;;;;;;;22.67;61.71;99539.34;5031961;28;20083;-74
2023/06/19 08:05:42;;;;;;;7.43;2.47;;;;;;;22.64;62.09;99546.38;5033567;28;20736;-83
2023/06/19 08:08:07;;;;;;;3.53;1.67;;;;;;;22.62;61.78;99548.72;5033442;28;20051;-79
2023/06/19 08:10:32;;;;;;;3.10;1.70;;;;;;;22.46;62.30;99557.78;5035496;28;20044;-78
2023/06/19 08:12:58;;;;;;;4.88;1.90;;;;;;;22.41;62.66;99557.22;5033497;28;20292;-78
2023/06/19 08:15:23;;;;;;;6.50;1.95;;;;;;;22.41;62.69;99558.03;5034045;28;20669;-74
2023/06/19 08:17:48;;;;;;;4.80;1.77;;;;;;;22.23;63.24;99561.06;5033228;28;20517;-75
2023/06/19 08:20:13;;;;;;;4.13;1.93;;;;;;;22.59;62.37;99563.31;5033527;28;20295;-74
2023/06/19 08:22:39;;;;;;;3.87;2.10;;;;;;;22.56;62.48;99555.66;5032944;28;20357;-75
2023/06/19 08:25:05;;;;;;;4.38;2.42;;;;;;;22.50;62.69;99563.44;5032167;28;20293;-75
2023/06/19 08:27:30;;;;;;;7.63;2.08;;;;;;;22.68;62.42;99550.09;5032123;28;20498;-74
2023/06/19 08:29:55;;;;;;;6.53;1.73;;;;;;;22.69;62.06;99554.53;5035173;28;20073;-77
2023/06/19 08:32:21;;;;;;;5.03;1.60;;;;;;;22.85;61.57;99550.97;5039163;28;20025;-75
2023/06/19 08:34:46;;;;;;;8.25;1.88;;;;;;;22.55;62.76;99554.06;5034191;28;20593;-75
2023/06/19 08:37:11;;;;;;;9.27;2.20;;;;;;;22.58;62.60;99556.94;5034476;28;20040;-72
2023/06/19 08:39:38;;;;;;;3.13;1.85;;;;;;;22.60;62.77;99564.91;5033478;28;20297;-73
2023/06/19 08:42:06;;;;;;;4.07;1.23;;;;;;;22.78;62.17;99562.69;5034109;28;20410;-74
2023/06/19 08:44:33;;;;;;;6.22;1.50;;;;;;;22.77;62.40;99561.09;5033230;28;20492;-74
2023/06/19 08:46:58;;;;;;;3.85;2.00;;;;;;;22.76;62.94;99561.44;5032735;28;20049;-75
2023/06/19 08:49:23;;;;;;;3.67;1.70;;;;;;;22.75;62.86;99568.97;5030823;28;20064;-75
2023/06/19 08:51:49;;;;;;;8.53;2.43;;;;;;;22.97;62.57;99564.81;5027680;28;20763;-74
2023/06/19 08:54:14;;;;;;;6.43;2.53;;;;;;;22.88;62.77;99582.81;5032288;28;20124;-75
2023/06/19 08:56:39;;;;;;;4.05;1.23;;;;;;;22.70;63.83;99578.34;5032548;28;20274;-74
2023/06/19 08:59:15;;;;;;;7.20;2.70;;;;;;;22.57;63.70;99585.06;5032628;28;20033;-76
2023/06/19 09:01:51;;;;;;;3.15;1.55;;;;;;;22.55;63.17;99582.66;5039058;28;20318;-77
2023/06/19 09:04:18;;;;;;;5.43;2.17;;;;;;;22.64;62.52;99579.72;5032947;28;20029;-74
2023/06/19 09:06:54;;;;;;;5.57;2.58;;;;;;;22.76;62.06;99575.34;5032464;28;20033;-74
2023/06/19 09:09:22;;;;;;;3.90;1.85;;;;;;;22.68;62.13;99577.88;5030985;28;20120;-74
2023/06/19 09:12:09;;;;;;;3.83;2.15;;;;;;;22.90;61.18;99570.19;5032371;28;20059;-74
2023/06/19 09:14:36;;;;;;;6.03;1.77;;;;;;;23.16;61.04;99571.69;5032891;28;20037;-75
2023/06/19 09:17:03;;;;;;;4.82;1.60;;;;;;;23.23;60.93;99582.16;5032452;28;20628;-75
2023/06/19 09:19:29;;;;;;;4.15;1.77;;;;;;;23.20;61.03;99583.72;5031784;28;20048;-75
2023/06/19 09:22:02;;;;;;;17.70;2.35;;;;;;;23.29;60.62;99585.53;5032227;28;20037;-74
2023/06/19 09:24:36;;;;;;;4.32;1.90;;;;;;;23.23;61.04;99586.94;5032573;28;20112;-75
2023/06/19 09:27:06;;;;;;;3.33;1.65;;;;;;;23.56;60.30;99591.41;5031984;28;20037;-74
2023/06/19 09:29:32;;;;;;;4.40;2.30;;;;;;;23.51;59.81;99591.69;5031992;28;20063;-73
2023/06/19 09:31:57;;;;;;;3.23;1.90;;;;;;;23.43;60.03;99591.44;5031034;28;20040;-74
2023/06/19 09:34:22;;;;;;;7.13;2.80;;;;;;;23.56;59.96;99585.84;5031867;28;20067;-75
2023/06/19 09:36:50;;;;;;;5.40;2.37;;;;;;;23.58;59.50;99591.03;5034134;28;20033;-74
2023/06/19 09:39:16;;;;;;;2.97;1.85;;;;;;;23.73;59.21;99592.22;5035537;28;20629;-74
2023/06/19 09:41:46;;;;;;;6.65;2.38;;;;;;;23.63;58.76;99594.38;5035367;28;20033;-74
2023/06/19 09:44:12;;;;;;;4.80;2.40;;;;;;;23.75;58.06;99595.44;5036019;28;20117;-75
2023/06/19 09:46:40;;;;;;;5.05;1.88;;;;;;;23.74;57.61;99593.81;5036165;28;20033;-75
2023/06/19 09:49:07;;;;;;;5.00;2.10;;;;;;;23.81;58.09;99595.97;5034377;28;20115;-74
2023/06/19 09:51:37;;;;;;;4.45;2.80;;;;;;;23.93;57.38;99590.31;5035530;28;20513;-75
2023/06/19 09:54:04;;;;;;;4.07;2.22;;;;;;;24.04;56.65;99587.00;5035933;28;20037;-74
2023/06/19 09:56:30;;;;;;;4.72;2.30;;;;;;;23.82;56.54;99601.19;5037885;28;20039;-71
2023/06/19 09:58:59;;;;;;;5.88;2.17;;;;;;;24.21;56.86;99586.63;5035451;28;20033;-75
2023/06/19 10:01:26;;;;;;;5.10;2.17;;;;;;;24.49;55.63;99582.84;5037430;28;20039;-75
2023/06/19 10:04:02;;;;;;;4.20;2.25;;;;;;;24.78;53.53;99585.44;5037444;28;21017;-75
2023/06/19 10:06:29;;;;;;;9.00;1.92;;;;;;;24.72;53.95;99595.28;5037298;28;20037;-75
2023/06/19 10:08:55;;;;;;;4.68;2.65;;;;;;;24.69;53.65;99591.22;5036338;28;20139;-75
2023/06/19 10:11:20;;;;;;;9.33;2.87;;;;;;;24.88;53.48;99591.59;5035816;28;20135;-77
2023/06/19 10:13:45;;;;;;;5.93;2.35;;;;;;;25.01;53.08;99595.06;5036015;28;20300;-76
2023/06/19 10:16:21;;;;;;;6.17;2.90;;;;;;;24.90;52.18;99589.25;5036759;28;20403;-75
2023/06/19 10:18:47;;;;;;;7.32;2.15;;;;;;;24.86;52.61;99589.19;5035960;28;20045;-75
2023/06/19 10:21:20;;;;;;;4.80;2.17;;;;;;;25.13;52.51;99603.28;5036075;28;20060;-76
2023/06/19 10:23:54;;;;;;;5.78;2.38;;;;;;;25.01;52.14;99593.09;5036633;28;20477;-75
2023/06/19 10:26:21;;;;;;;4.88;2.00;;;;;;;25.12;51.80;99601.66;5036607;28;20102;-75
2023/06/19 10:28:48;;;;;;;54.92;5.50;;;;;;;25.10;51.45;99603.22;5034935;28;20040;-76
2023/06/19 10:31:13;;;;;;;8.48;2.42;;;;;;;25.09;51.03;99590.44;5037907;28;20395;-75
2023/06/19 10:33:41;;;;;;;5.73;2.57;;;;;;;24.90;51.58;99600.41;5034802;28;20056;-76
2023/06/19 10:36:22;;;;;;;4.72;2.13;;;;;;;24.78;51.09;99598.56;5035007;28;20385;-76
2023/06/19 10:38:49;;;;;;;6.80;2.35;;;;;;;25.09;51.47;99590.44;5035498;28;20537;-77
2023/06/19 10:41:15;;;;;;;3.92;1.98;;;;;;;25.03;51.26;99589.94;5035583;28;20037;-76
2023/06/19 10:43:41;;;;;;;6.97;2.97;;;;;;;25.17;51.21;99586.63;5035784;28;20087;-77
2023/06/19 10:46:06;;;;;;;6.83;2.87;;;;;;;25.32;51.15;99595.25;5036136;28;20036;-75
2023/06/19 10:48:32;;;;;;;9.97;2.30;;;;;;;25.05;51.67;99595.97;5034743;28;20478;-75
2023/06/19 10:50:57;;;;;;;4.47;2.58;;;;;;;25.18;51.37;99583.47;5034814;28;20265;-75
2023/06/19 10:53:27;;;;;;;5.78;2.45;;;;;;;25.39;50.76;99581.44;5036037;28;20034;-75
2023/06/19 10:56:01;;;;;;;4.47;2.28;;;;;;;25.62;49.89;99575.06;5035195;28;20061;-76
2023/06/19 10:58:28;;;;;;;4.70;2.53;;;;;;;25.58;49.14;99583.38;5033850;28;20057;-75
2023/06/19 11:00:53;;;;;;;8.75;2.90;;;;;;;25.51;49.52;99584.03;5033633;28;20102;-75
2023/06/19 11:03:22;;;;;;;8.90;3.88;;;;;;;25.53;49.52;99576.09;5034143;28;20052;-74
2023/06/19 11:05:48;;;;;;;6.72;2.72;;;;;;;25.41;49.57;99579.09;5033311;28;20045;-74
2023/06/19 11:08:29;;;;;;;5.55;2.63;;;;;;;25.21;50.36;99581.09;5066348;28;20380;-76
2023/06/19 11:10:55;;;;;;;5.83;3.00;;;;;;;25.15;50.19;99583.41;5064589;28;20059;-76
2023/06/19 11:13:21;;;;;;;5.10;2.33;;;;;;;25.46;50.08;99567.63;5065445;28;20068;-75
2023/06/19 11:15:50;;;;;;;7.60;2.67;;;;;;;25.48;48.44;99572.84;5064947;28;20021;-76
2023/06/19 11:18:17;;;;;;;7.57;3.00;;;;;;;25.61;48.96;99581.81;5062905;28;20505;-76
2023/06/19 11:20:52;;;;;;;5.25;2.78;;;;;;;25.50;48.98;99568.50;5061229;28;20041;-75
2023/06/19 11:23:29;;;;;;;6.97;2.70;;;;;;;25.66;48.59;99573.13;5062590;28;20128;-75
2023/06/19 11:26:02;;;;;;;18.45;3.35;;;;;;;25.81;47.93;99576.19;5061962;28;20112;-75
2023/06/19 11:28:29;;;;;;;9.52;2.92;;;;;;;25.99;48.10;99577.25;5062180;28;20610;-75